Time;durP1;ratioP1;P1;durP2;ratioP2;P2;SDS_P1;SDS_P2;PMS_P1;PMS_P2;Temp;Humidity;BMP_temperature;BMP_pressure;BME280_temperature;BME280_humidity;BME280_pressure;Samples;Min_cycle;Max_cycle;Signal;HPM_P1;HPM_P2
2022/04/09 00:01:02;;;;;;;25.92;14.35;;;;;;;10.87;55.16;98126.25;5017568;27;101220;-84
2022/04/09 00:03:27;;;;;;;12.60;7.40;;;;;;;10.83;55.00;98126.59;5051225;27;97195;-84
2022/04/09 00:05:53;;;;;;;11.13;5.88;;;;;;;10.69;54.87;98088.19;5016489;27;97354;-84
2022/04/09 00:08:19;;;;;;;10.70;5.28;;;;;;;10.96;54.75;98101.13;5033723;27;97896;-83
2022/04/09 00:10:44;;;;;;;8.48;5.15;;;;;;;10.80;54.98;98096.16;5034457;27;100846;-83
2022/04/09 00:13:10;;;;;;;9.73;5.68;;;;;;;10.79;54.69;98099.72;5016946;27;96758;-83
2022/04/09 00:15:36;;;;;;;9.68;6.05;;;;;;;10.85;54.57;98095.84;5044077;27;96795;-83
2022/04/09 00:18:02;;;;;;;10.70;6.38;;;;;;;10.85;54.78;98085.34;5051389;27;98474;-83
2022/04/09 00:20:28;;;;;;;8.82;6.15;;;;;;;10.78;55.03;98073.56;5013896;27;100925;-83
2022/04/09 00:22:54;;;;;;;8.82;5.45;;;;;;;10.85;54.56;98064.34;5051541;27;96717;-84
2022/04/09 00:25:24;;;;;;;9.73;5.90;;;;;;;10.82;54.68;98068.03;5051832;27;96778;-84
2022/04/09 00:27:53;;;;;;;9.70;5.97;;;;;;;10.81;55.00;98052.38;5017495;27;100910;-83
2022/04/09 00:30:19;;;;;;;10.98;5.72;;;;;;;10.87;54.71;98044.06;5017075;27;100566;-83
2022/04/09 00:32:44;;;;;;;9.13;5.50;;;;;;;10.85;54.37;98046.81;5016520;27;97134;-83
2022/04/09 00:35:10;;;;;;;9.23;5.45;;;;;;;10.69;55.34;98053.25;5034295;27;97157;-83
2022/04/09 00:37:46;;;;;;;10.07;5.63;;;;;;;10.73;55.37;98065.19;5033976;27;101571;-83
2022/04/09 00:40:14;;;;;;;10.65;6.22;;;;;;;10.61;54.82;98048.53;5017018;27;101192;-83
2022/04/09 00:42:43;;;;;;;9.48;6.20;;;;;;;10.55;55.46;98038.47;5015024;27;97709;-84
2022/04/09 00:45:12;;;;;;;10.50;5.97;;;;;;;10.39;55.38;98015.94;5014483;27;97423;-83
2022/04/09 00:47:38;;;;;;;9.68;6.63;;;;;;;10.40;55.37;98035.13;5016759;27;101426;-84
2022/04/09 00:50:06;;;;;;;10.68;6.22;;;;;;;10.58;55.20;98051.34;5017310;27;99349;-83
2022/04/09 00:52:40;;;;;;;9.63;6.18;;;;;;;10.61;55.41;98045.91;5016774;27;96655;-83
2022/04/09 00:55:07;;;;;;;9.98;5.97;;;;;;;10.62;55.19;98058.91;5034548;27;96749;-83
2022/04/09 00:57:34;;;;;;;11.45;7.13;;;;;;;10.71;55.28;98064.47;5032217;27;97867;-83
2022/04/09 01:00:09;;;;;;;10.82;6.60;;;;;;;10.60;55.26;98038.97;5033702;27;101602;-83
2022/04/09 01:02:44;;;;;;;10.77;6.47;;;;;;;10.79;54.91;98068.25;5015942;27;97755;-83
2022/04/09 01:05:12;;;;;;;9.98;6.50;;;;;;;10.81;54.62;98065.50;5016995;27;97239;-83
2022/04/09 01:07:39;;;;;;;11.98;6.88;;;;;;;10.79;55.15;98068.25;5033334;27;99501;-84
2022/04/09 01:10:08;;;;;;;9.68;6.50;;;;;;;10.69;55.54;98061.09;5050876;27;97982;-84
2022/04/09 01:12:36;;;;;;;11.13;6.13;;;;;;;10.57;55.22;98047.91;5016218;27;97831;-83
2022/04/09 01:15:06;;;;;;;10.70;7.22;;;;;;;10.85;55.21;98095.84;5023899;27;97061;-84
2022/04/09 01:17:32;;;;;;;10.13;6.40;;;;;;;10.81;55.68;98107.47;5032410;27;101602;-84
2022/04/09 01:19:57;;;;;;;10.23;6.68;;;;;;;10.74;56.06;98101.81;5012160;27;101604;-83
2022/04/09 01:22:24;;;;;;;8.95;6.35;;;;;;;10.79;56.38;98111.97;5011915;27;96781;-83
2022/04/09 01:24:50;;;;;;;8.48;6.63;;;;;;;10.75;56.33;98105.28;5041317;27;97293;-83
2022/04/09 01:27:16;;;;;;;11.80;6.72;;;;;;;10.77;56.57;98119.16;5032065;27;101343;-83
2022/04/09 01:29:43;;;;;;;12.13;6.90;;;;;;;10.72;57.07;98137.81;5032828;27;100904;-84
2022/04/09 01:32:10;;;;;;;12.32;6.35;;;;;;;10.74;56.80;98140.34;5017074;27;96881;-84
2022/04/09 01:34:37;;;;;;;9.30;6.88;;;;;;;10.78;57.01;98136.56;5033303;27;96830;-83
2022/04/09 01:37:03;;;;;;;9.65;5.63;;;;;;;10.68;57.21;98135.53;5014542;27;100530;-83
2022/04/09 01:39:30;;;;;;;14.60;7.43;;;;;;;10.71;57.44;98145.81;5034687;27;99955;-83
2022/04/09 01:41:56;;;;;;;10.80;6.95;;;;;;;10.53;57.27;98122.53;5013663;27;97175;-84
2022/04/09 01:44:21;;;;;;;8.80;6.00;;;;;;;10.70;57.31;98152.00;5028630;27;96857;-84
2022/04/09 01:46:47;;;;;;;12.85;6.25;;;;;;;10.59;57.38;98144.88;5015515;27;101009;-83
2022/04/09 01:49:14;;;;;;;9.95;5.78;;;;;;;10.65;57.24;98152.31;5033462;27;100772;-84
2022/04/09 01:51:40;;;;;;;8.52;5.10;;;;;;;10.53;57.03;98148.75;5016730;27;97207;-84
2022/04/09 01:54:06;;;;;;;8.40;5.07;;;;;;;10.50;57.84;98161.22;5017194;27;97242;-83
2022/04/09 01:56:32;;;;;;;6.40;4.00;;;;;;;10.42;56.83;98165.22;5016641;27;101377;-83
2022/04/09 01:58:58;;;;;;;6.85;3.92;;;;;;;10.43;56.50;98176.53;5016908;28;100657;-83
2022/04/09 02:01:25;;;;;;;4.70;3.10;;;;;;;10.47;56.26;98191.16;5008530;28;96709;-83
2022/04/09 02:03:50;;;;;;;4.75;2.08;;;;;;;10.39;56.13;98185.56;5037250;27;96983;-83
2022/04/09 02:06:16;;;;;;;4.03;2.00;;;;;;;10.26;55.79;98159.28;5025197;28;100534;-83
2022/04/09 02:08:42;;;;;;;4.13;1.80;;;;;;;10.34;55.58;98182.41;5035637;27;97983;-84
2022/04/09 02:11:08;;;;;;;3.10;1.67;;;;;;;10.36;56.34;98191.84;5020978;27;98498;-83
2022/04/09 02:13:34;;;;;;;2.17;1.60;;;;;;;10.25;56.72;98190.84;5036150;27;96867;-83
2022/04/09 02:16:00;;;;;;;3.20;1.50;;;;;;;10.08;56.66;98190.19;5036879;27;101446;-82
2022/04/09 02:18:28;;;;;;;5.03;2.13;;;;;;;9.97;56.62;98196.13;5034351;27;97826;-83
2022/04/09 02:20:55;;;;;;;3.10;1.80;;;;;;;10.14;56.64;98209.91;5016475;28;97286;-83
2022/04/09 02:23:21;;;;;;;4.47;2.50;;;;;;;9.93;56.86;98214.78;5031004;27;96880;-83
2022/04/09 02:25:46;;;;;;;4.65;2.30;;;;;;;9.99;56.73;98219.63;5037044;27;98529;-83
2022/04/09 02:28:12;;;;;;;4.65;2.80;;;;;;;9.93;56.70;98217.41;5005554;27;101510;-84
2022/04/09 02:30:37;;;;;;;5.65;2.92;;;;;;;9.88;56.43;98220.31;5032734;27;96702;-83
2022/04/09 02:33:05;;;;;;;2.97;2.45;;;;;;;9.89;56.75;98216.75;5018347;27;96813;-83
2022/04/09 02:35:39;;;;;;;6.65;3.17;;;;;;;9.95;56.44;98224.22;5026796;27;100379;-83
2022/04/09 02:38:09;;;;;;;7.20;3.20;;;;;;;9.91;56.22;98230.59;5035782;27;99912;-84
2022/04/09 02:40:35;;;;;;;5.72;3.15;;;;;;;9.83;56.40;98209.31;5036080;27;97186;-84
2022/04/09 02:43:01;;;;;;;5.13;3.75;;;;;;;9.91;56.37;98225.34;5019259;27;96837;-84
2022/04/09 02:45:28;;;;;;;6.32;3.60;;;;;;;9.89;56.36;98229.00;5035838;27;97939;-84
2022/04/09 02:47:54;;;;;;;9.48;4.50;;;;;;;9.90;56.82;98236.78;5035378;27;101364;-83
2022/04/09 02:50:23;;;;;;;5.05;3.35;;;;;;;9.88;56.64;98238.66;5019626;27;97436;-83
2022/04/09 02:52:49;;;;;;;6.13;3.35;;;;;;;9.93;57.02;98247.06;5022336;27;97075;-83
2022/04/09 02:55:16;;;;;;;4.80;3.28;;;;;;;9.87;57.26;98231.72;5033547;27;101294;-83
2022/04/09 02:57:43;;;;;;;5.45;3.20;;;;;;;9.91;57.37;98232.38;5019184;27;101455;-84
2022/04/09 03:00:12;;;;;;;6.70;4.43;;;;;;;9.88;57.40;98243.88;5019637;27;97114;-83
2022/04/09 03:02:39;;;;;;;5.50;3.38;;;;;;;9.89;57.01;98247.34;5017867;27;96855;-83
2022/04/09 03:05:07;;;;;;;5.78;3.97;;;;;;;9.81;57.17;98226.06;5016044;28;100934;-84
2022/04/09 03:07:33;;;;;;;7.10;3.75;;;;;;;9.83;57.35;98232.03;5029582;27;101580;-83
2022/04/09 03:09:58;;;;;;;6.25;3.67;;;;;;;9.69;57.36;98227.69;5019160;27;96753;-84
2022/04/09 03:12:24;;;;;;;7.68;4.15;;;;;;;9.68;58.08;98270.50;5026974;27;96992;-83
2022/04/09 03:14:49;;;;;;;6.50;3.80;;;;;;;9.68;57.96;98275.75;5018837;27;101421;-84
2022/04/09 03:17:15;;;;;;;8.40;3.88;;;;;;;9.58;57.66;98267.63;5036028;27;98651;-83
2022/04/09 03:19:41;;;;;;;5.50;3.97;;;;;;;9.68;57.33;98278.38;5035500;27;97287;-84
2022/04/09 03:22:09;;;;;;;5.53;3.75;;;;;;;9.68;57.54;98281.00;5035988;27;96761;-84
2022/04/09 03:24:38;;;;;;;6.32;3.97;;;;;;;9.64;57.39;98279.50;5016777;27;100972;-84
2022/04/09 03:27:04;;;;;;;5.28;3.75;;;;;;;9.64;57.87;98285.59;5010845;27;101399;-84
2022/04/09 03:29:31;;;;;;;5.75;3.70;;;;;;;9.48;57.88;98283.09;5018629;27;96820;-83
2022/04/09 03:31:58;;;;;;;5.82;3.80;;;;;;;9.57;57.92;98293.91;5035348;27;96856;-84
2022/04/09 03:34:25;;;;;;;5.05;3.63;;;;;;;9.65;57.92;98300.38;5035030;27;102162;-84
2022/04/09 03:36:51;;;;;;;6.68;4.35;;;;;;;9.65;57.59;98297.75;5018422;27;101086;-83
2022/04/09 03:39:17;;;;;;;5.35;4.03;;;;;;;9.51;57.52;98285.53;5017274;27;97643;-83
2022/04/09 03:41:43;;;;;;;7.45;3.38;;;;;;;9.66;57.64;98311.72;5018820;27;96797;-84
2022/04/09 03:44:08;;;;;;;6.25;3.88;;;;;;;9.55;57.75;98303.66;5034862;27;100833;-84
2022/04/09 03:46:43;;;;;;;4.63;3.53;;;;;;;9.58;57.83;98321.81;5036128;27;100899;-84
2022/04/09 03:49:13;;;;;;;4.60;3.15;;;;;;;9.47;57.70;98319.84;5020022;27;96968;-84
2022/04/09 03:51:41;;;;;;;5.28;3.22;;;;;;;9.51;57.21;98326.56;5018581;27;96795;-83
2022/04/09 03:54:08;;;;;;;5.18;2.75;;;;;;;9.43;57.26;98321.81;5032097;27;101381;-84
2022/04/09 03:56:34;;;;;;;5.22;3.05;;;;;;;9.37;57.92;98342.31;5017780;27;101888;-84
2022/04/09 03:59:00;;;;;;;5.00;3.50;;;;;;;9.41;57.85;98349.03;5044746;27;96743;-84
2022/04/09 04:01:27;;;;;;;4.10;3.25;;;;;;;9.42;58.22;98348.06;5018071;27;96931;-84
2022/04/09 04:03:57;;;;;;;6.20;3.53;;;;;;;9.46;58.07;98355.66;5018764;27;101410;-84
2022/04/09 04:06:24;;;;;;;5.15;3.45;;;;;;;9.22;58.30;98349.28;5021783;27;101309;-83
2022/04/09 04:08:52;;;;;;;5.00;3.30;;;;;;;9.20;58.01;98351.16;5019318;27;97045;-84
2022/04/09 04:11:19;;;;;;;10.93;6.70;;;;;;;9.19;58.61;98344.22;5034735;27;97984;-84
2022/04/09 04:13:45;;;;;;;9.65;5.25;;;;;;;9.34;58.06;98373.88;5017278;27;100477;-83
2022/04/09 04:16:12;;;;;;;8.98;6.35;;;;;;;9.34;58.10;98371.25;5034538;27;99657;-84
2022/04/09 04:18:42;;;;;;;7.00;3.55;;;;;;;9.30;58.20;98363.59;5011034;27;96825;-84
2022/04/09 04:21:08;;;;;;;5.13;3.35;;;;;;;9.36;58.16;98379.88;5033919;27;96842;-83
2022/04/09 04:23:35;;;;;;;13.02;7.90;;;;;;;9.39;57.81;98379.69;5050662;27;101658;-84
2022/04/09 04:26:13;;;;;;;8.38;4.28;;;;;;;9.32;58.31;98360.91;5020936;27;99602;-82
2022/04/09 04:28:40;;;;;;;6.57;3.25;;;;;;;9.37;58.09;98371.94;5034254;27;96918;-83
2022/04/09 04:31:07;;;;;;;5.85;3.60;;;;;;;9.34;57.90;98366.88;5052286;27;96806;-84
2022/04/09 04:33:33;;;;;;;5.90;3.63;;;;;;;9.44;58.49;98390.75;5019027;27;101822;-84
2022/04/09 04:35:59;;;;;;;5.05;3.53;;;;;;;9.31;58.21;98367.06;5020081;27;100992;-83
2022/04/09 04:38:29;;;;;;;5.93;3.30;;;;;;;9.38;58.31;98386.72;5019570;27;97336;-84
2022/04/09 04:40:59;;;;;;;5.07;3.20;;;;;;;9.27;58.27;98361.16;5018748;27;97080;-84
2022/04/09 04:43:26;;;;;;;8.70;5.90;;;;;;;9.42;58.58;98397.84;5017894;27;101668;-84
2022/04/09 04:45:53;;;;;;;6.25;3.88;;;;;;;9.36;58.42;98377.25;5034473;27;101554;-83
2022/04/09 04:48:20;;;;;;;6.13;4.13;;;;;;;9.32;59.03;98388.84;5034742;27;96810;-83
2022/04/09 04:50:47;;;;;;;6.68;3.53;;;;;;;9.38;59.05;98383.25;5034463;27;97363;-83
2022/04/09 04:53:13;;;;;;;6.05;3.47;;;;;;;9.39;59.09;98388.38;5033550;27;100658;-84
2022/04/09 04:55:44;;;;;;;8.50;4.00;;;;;;;9.41;58.90;98390.94;5034623;27;101680;-83
2022/04/09 04:58:10;;;;;;;5.47;3.20;;;;;;;9.39;59.12;98382.31;5050893;27;97033;-84
2022/04/09 05:00:50;;;;;;;5.72;3.40;;;;;;;9.42;59.04;98393.44;5033395;27;96823;-84
2022/04/09 05:03:17;;;;;;;6.28;4.13;;;;;;;9.34;58.85;98400.06;5030803;27;101426;-85
2022/04/09 05:05:54;;;;;;;6.53;4.10;;;;;;;9.36;58.93;98403.44;5035476;27;101643;-84
2022/04/09 05:08:21;;;;;;;5.93;3.63;;;;;;;9.32;58.75;98404.56;5033979;27;96736;-83
2022/04/09 05:10:47;;;;;;;6.70;3.30;;;;;;;9.36;59.25;98422.59;5031364;27;97473;-84
2022/04/09 05:13:15;;;;;;;7.35;3.53;;;;;;;9.45;58.66;98424.72;5034007;27;100325;-84
2022/04/09 05:15:40;;;;;;;6.35;3.40;;;;;;;9.41;58.92;98424.97;5050480;27;97344;-83
2022/04/09 05:18:06;;;;;;;7.68;3.78;;;;;;;9.35;59.07;98415.69;5017962;27;97244;-84
2022/04/09 05:20:34;;;;;;;5.63;3.50;;;;;;;9.34;59.07;98432.34;5017842;27;97438;-84
2022/04/09 05:23:04;;;;;;;7.07;4.05;;;;;;;9.33;58.78;98421.97;5033713;27;101749;-83
2022/04/09 05:25:31;;;;;;;8.18;3.97;;;;;;;9.31;58.91;98443.00;5049891;27;98023;-83
2022/04/09 05:28:04;;;;;;;6.00;3.60;;;;;;;9.27;59.11;98451.97;5016960;27;97837;-84
2022/04/09 05:30:35;;;;;;;7.82;3.60;;;;;;;9.26;59.02;98447.66;5017929;27;96675;-83
2022/04/09 05:33:02;;;;;;;7.20;3.38;;;;;;;9.30;58.90;98462.25;5036861;27;101454;-83
2022/04/09 05:35:29;;;;;;;6.70;3.67;;;;;;;9.28;59.22;98464.97;5036738;27;100711;-83
2022/04/09 05:37:55;;;;;;;6.47;3.65;;;;;;;9.34;59.01;98468.13;5037142;27;97168;-84
2022/04/09 05:40:26;;;;;;;5.07;3.88;;;;;;;9.35;59.47;98481.16;5037591;27;96804;-84
2022/04/09 05:42:56;;;;;;;5.82;4.18;;;;;;;9.32;59.38;98488.34;5021164;27;101416;-83
2022/04/09 05:45:22;;;;;;;6.55;4.50;;;;;;;9.35;58.88;98488.19;5036761;27;100346;-83
2022/04/09 05:47:48;;;;;;;8.52;4.57;;;;;;;9.37;59.12;98495.03;5019813;27;97341;-83
2022/04/09 05:50:19;;;;;;;7.18;4.50;;;;;;;9.28;58.86;98485.09;5037973;27;97146;-83
2022/04/09 05:52:45;;;;;;;8.65;4.97;;;;;;;9.42;58.70;98505.22;5049890;27;98576;-83
2022/04/09 05:55:14;;;;;;;7.35;4.40;;;;;;;9.34;58.90;98521.38;5030302;27;101561;-83
2022/04/09 05:57:40;;;;;;;6.72;4.22;;;;;;;9.39;59.17;98526.34;5036004;27;96781;-82
2022/04/09 06:00:09;;;;;;;5.63;4.53;;;;;;;9.30;58.96;98512.00;5037502;27;96853;-85
2022/04/09 06:02:56;;;;;;;9.70;4.97;;;;;;;9.45;59.04;98539.06;5009761;27;101257;-83
2022/04/09 06:05:30;;;;;;;6.45;4.10;;;;;;;9.44;58.89;98550.50;5043507;27;100554;-83
2022/04/09 06:07:58;;;;;;;11.45;4.50;;;;;;;9.41;59.15;98551.50;5036389;27;97043;-83
2022/04/09 06:10:26;;;;;;;10.02;4.63;;;;;;;9.47;58.94;98566.03;5029891;27;97306;-83
2022/04/09 06:12:52;;;;;;;6.47;4.25;;;;;;;9.39;58.84;98561.22;5017995;27;100350;-82
2022/04/09 06:15:22;;;;;;;8.07;4.50;;;;;;;9.47;58.75;98566.03;5016949;27;100239;-83
2022/04/09 06:17:51;;;;;;;8.05;3.78;;;;;;;9.35;59.31;98551.03;5012645;28;96780;-83
2022/04/09 06:20:17;;;;;;;7.90;4.50;;;;;;;9.50;58.58;98581.56;5031560;27;96806;-83
2022/04/09 06:22:44;;;;;;;6.72;4.50;;;;;;;9.56;58.01;98580.38;5028046;27;101159;-83
2022/04/09 06:25:12;;;;;;;6.55;4.43;;;;;;;9.44;58.43;98567.03;5031365;27;100675;-82
2022/04/09 06:27:39;;;;;;;6.68;5.00;;;;;;;9.56;58.61;98580.38;5028442;27;96825;-83
2022/04/09 06:30:06;;;;;;;7.10;4.72;;;;;;;9.44;58.39;98571.44;5024529;27;97632;-83
2022/04/09 06:32:33;;;;;;;8.93;4.97;;;;;;;9.50;58.46;98585.03;5028003;27;99536;-83
2022/04/09 06:34:59;;;;;;;6.28;4.80;;;;;;;9.60;58.49;98598.47;5028124;27;101432;-82
2022/04/09 06:37:26;;;;;;;9.68;4.47;;;;;;;9.47;58.28;98566.88;5014543;27;97055;-84
2022/04/09 06:39:52;;;;;;;8.30;4.57;;;;;;;9.52;59.03;98584.94;5023382;27;96899;-83
2022/04/09 06:42:18;;;;;;;6.35;4.40;;;;;;;9.56;58.52;98599.56;5011533;27;101095;-83
2022/04/09 06:45:03;;;;;;;6.55;3.63;;;;;;;9.63;58.87;98621.00;5045532;27;97044;-83
2022/04/09 06:47:47;;;;;;;6.28;3.85;;;;;;;9.63;58.45;98631.47;5024746;27;96840;-83
2022/04/09 06:50:13;;;;;;;10.77;3.80;;;;;;;9.56;58.79;98630.97;5014842;27;97244;-84
2022/04/09 06:52:41;;;;;;;11.10;4.20;;;;;;;9.76;58.23;98650.81;5013752;27;100827;-83
2022/04/09 06:55:19;;;;;;;6.30;3.88;;;;;;;9.75;57.74;98657.84;5034396;27;101390;-83
2022/04/09 06:57:47;;;;;;;5.95;4.18;;;;;;;9.67;58.13;98662.66;5026861;27;96833;-85
2022/04/09 07:00:18;;;;;;;7.60;3.63;;;;;;;9.67;58.03;98673.16;5037419;27;97166;-83
2022/04/09 07:02:44;;;;;;;7.90;4.38;;;;;;;9.70;57.91;98678.22;5034595;27;101498;-84
2022/04/09 07:05:10;;;;;;;7.10;4.05;;;;;;;9.85;57.74;98683.50;5053615;27;98061;-83
2022/04/09 07:07:35;;;;;;;6.57;3.70;;;;;;;9.92;57.71;98690.97;5035321;27;97167;-83
2022/04/09 07:10:11;;;;;;;8.25;3.67;;;;;;;9.93;57.37;98700.50;5019084;27;96841;-84
2022/04/09 07:12:37;;;;;;;5.28;3.80;;;;;;;10.07;57.09;98706.75;5039523;27;98005;-79
2022/04/09 07:15:04;;;;;;;9.80;3.67;;;;;;;10.24;57.32;98713.59;5017331;27;101390;-79
2022/04/09 07:17:30;;;;;;;8.30;3.80;;;;;;;10.43;57.01;98701.97;5017853;27;96761;-78
2022/04/09 07:20:00;;;;;;;6.68;3.40;;;;;;;10.60;56.34;98708.88;5024205;27;97390;-78
2022/04/09 07:22:26;;;;;;;4.78;3.20;;;;;;;10.72;56.03;98723.03;5032955;27;101389;-79
2022/04/09 07:24:53;;;;;;;7.28;2.95;;;;;;;10.82;55.73;98745.19;5027227;27;101368;-79
2022/04/09 07:27:19;;;;;;;5.47;3.45;;;;;;;10.85;55.37;98739.75;5016134;27;96861;-82
2022/04/09 07:29:45;;;;;;;6.20;3.22;;;;;;;10.83;55.16;98749.47;5007461;27;97334;-86
2022/04/09 07:32:11;;;;;;;6.85;3.53;;;;;;;10.67;55.33;98755.72;5026744;27;97594;-82
2022/04/09 07:34:37;;;;;;;6.40;3.00;;;;;;;10.62;55.32;98759.47;5032962;27;101480;-77
2022/04/09 07:37:03;;;;;;;8.02;3.25;;;;;;;10.63;55.73;98774.28;5050410;27;96732;-79
2022/04/09 07:39:30;;;;;;;6.60;3.53;;;;;;;10.46;56.20;98778.81;5033216;27;96888;-80
2022/04/09 07:41:55;;;;;;;8.63;3.15;;;;;;;10.48;55.77;98788.31;5032734;27;101766;-79
2022/04/09 07:44:22;;;;;;;6.38;2.83;;;;;;;10.43;56.14;98770.19;5037898;27;97906;-80
2022/04/09 07:46:48;;;;;;;6.47;2.97;;;;;;;10.60;55.50;98784.97;5009693;27;97772;-81
2022/04/09 07:49:14;;;;;;;10.77;3.15;;;;;;;10.67;55.80;98787.22;5034313;27;98911;-80
2022/04/09 07:51:40;;;;;;;7.35;2.67;;;;;;;10.85;55.28;98788.78;5028749;27;101169;-81
2022/04/09 07:54:06;;;;;;;5.60;2.20;;;;;;;10.91;54.48;98792.78;5021246;27;97791;-81
2022/04/09 07:56:31;;;;;;;7.30;2.22;;;;;;;10.96;53.00;98770.56;5041043;27;96742;-82
2022/04/09 07:58:57;;;;;;;6.72;2.28;;;;;;;11.89;52.18;98795.50;5029799;27;98703;-81
2022/04/09 08:01:23;;;;;;;6.78;2.33;;;;;;;11.78;51.20;98801.44;5011432;27;101008;-81
2022/04/09 08:03:49;;;;;;;6.63;2.08;;;;;;;11.55;51.31;98810.75;5030993;27;98180;-81
2022/04/09 08:06:15;;;;;;;6.40;2.10;;;;;;;11.24;51.75;98797.81;5030293;27;97326;-81
2022/04/09 08:08:41;;;;;;;8.98;2.15;;;;;;;11.52;51.14;98804.84;5015567;27;97942;-81
2022/04/09 08:11:06;;;;;;;6.35;2.40;;;;;;;12.15;50.32;98835.94;5023409;27;101552;-81
2022/04/09 08:13:33;;;;;;;5.05;2.17;;;;;;;12.99;48.48;98824.28;5010508;27;101646;-81
2022/04/09 08:15:59;;;;;;;6.53;1.98;;;;;;;13.66;46.81;98818.81;5037026;27;97220;-80
2022/04/09 08:18:25;;;;;;;7.22;2.28;;;;;;;15.04;44.50;98813.16;5028980;27;96929;-81
2022/04/09 08:20:51;;;;;;;5.35;1.80;;;;;;;16.20;42.20;98812.00;5013243;27;101332;-82
2022/04/09 08:23:16;;;;;;;5.32;1.92;;;;;;;16.69;41.24;98828.28;5030840;27;97498;-82
2022/04/09 08:25:42;;;;;;;6.38;1.83;;;;;;;16.39;41.74;98810.47;5019601;27;97240;-81
2022/04/09 08:28:07;;;;;;;5.75;1.98;;;;;;;15.74;42.55;98833.34;5041791;27;96882;-81
2022/04/09 08:30:33;;;;;;;7.20;1.95;;;;;;;15.15;42.62;98835.19;5043054;27;101468;-82
2022/04/09 08:33:03;;;;;;;8.68;2.13;;;;;;;15.80;42.11;98830.22;5027642;27;101151;-82
2022/04/09 08:35:28;;;;;;;6.38;2.25;;;;;;;17.17;40.25;98834.00;5015899;27;98936;-83
2022/04/09 08:37:55;;;;;;;5.88;2.45;;;;;;;18.14;38.80;98844.22;5025615;27;97118;-82
2022/04/09 08:40:21;;;;;;;6.80;1.90;;;;;;;18.02;38.77;98835.50;5009229;28;99367;-83
2022/04/09 08:42:48;;;;;;;8.55;2.38;;;;;;;17.35;38.23;98805.06;5041289;27;101653;-82
2022/04/09 08:45:15;;;;;;;9.57;2.70;;;;;;;17.12;37.78;98828.22;5013366;27;96804;-83
2022/04/09 08:47:42;;;;;;;3.03;1.30;;;;;;;17.04;38.30;98845.75;5031760;27;97343;-83
2022/04/09 08:50:10;;;;;;;3.45;1.63;;;;;;;16.41;38.83;98874.75;5036093;27;98136;-81
2022/04/09 08:52:44;;;;;;;7.68;2.05;;;;;;;15.63;39.46;98877.31;5017145;27;98446;-81
2022/04/09 08:55:12;;;;;;;7.30;2.00;;;;;;;15.03;40.75;98864.34;5028869;27;96881;-82
2022/04/09 08:57:38;;;;;;;7.82;1.90;;;;;;;14.70;41.20;98887.03;5048344;27;97046;-82
2022/04/09 09:00:13;;;;;;;9.07;1.88;;;;;;;14.56;42.25;98893.31;5014740;27;99583;-76
2022/04/09 09:03:00;;;;;;;3.15;1.63;;;;;;;14.55;42.86;98911.94;5030652;27;101272;-79
2022/04/09 09:05:40;;;;;;;3.97;1.45;;;;;;;14.64;40.84;98916.53;5028675;28;97167;-82
2022/04/09 09:08:07;;;;;;;32.60;3.65;;;;;;;15.96;40.03;98906.56;5032571;27;96730;-77
2022/04/09 09:10:34;;;;;;;4.45;1.65;;;;;;;17.78;36.73;98912.00;5014394;27;101450;-82
2022/04/09 09:13:07;;;;;;;4.68;1.80;;;;;;;18.63;34.43;98905.41;5029567;27;101146;-81
2022/04/09 09:15:53;;;;;;;6.38;2.00;;;;;;;18.66;32.88;98905.13;5026260;27;97233;-82
2022/04/09 09:18:20;;;;;;;3.10;1.52;;;;;;;17.83;34.48;98909.75;5045160;27;96820;-81
2022/04/09 09:20:49;;;;;;;3.30;1.67;;;;;;;17.09;35.25;98937.19;5019458;27;101450;-80
2022/04/09 09:23:32;;;;;;;4.35;1.70;;;;;;;16.54;35.75;98933.72;5030090;27;97845;-81
2022/04/09 09:25:59;;;;;;;4.50;2.15;;;;;;;16.09;36.86;98949.66;5031636;27;97385;-81
2022/04/09 09:28:32;;;;;;;5.55;1.80;;;;;;;15.59;37.32;98955.22;5014909;27;97330;-81
2022/04/09 09:30:59;;;;;;;2.92;1.50;;;;;;;15.15;36.53;98963.84;5049309;27;101855;-80
2022/04/09 09:33:25;;;;;;;6.20;1.88;;;;;;;14.83;37.78;98947.72;5034522;27;97894;-80
2022/04/09 09:35:54;;;;;;;5.38;2.13;;;;;;;14.60;38.50;98954.66;5004893;28;96680;-80
2022/04/09 09:38:31;;;;;;;4.47;1.80;;;;;;;14.78;38.22;98982.41;5027539;27;96932;-80
2022/04/09 09:40:58;;;;;;;5.05;1.60;;;;;;;15.17;37.57;98977.78;5026695;27;97766;-82
2022/04/09 09:43:25;;;;;;;5.07;1.48;;;;;;;14.91;37.44;98982.34;5016395;27;101102;-81
2022/04/09 09:45:53;;;;;;;4.25;2.00;;;;;;;14.96;37.63;98982.88;5006611;28;96919;-83
2022/04/09 09:48:22;;;;;;;2.83;1.45;;;;;;;15.16;37.46;98984.03;5029775;27;96832;-81
2022/04/09 09:50:48;;;;;;;4.95;1.45;;;;;;;14.91;37.51;98969.13;5049778;27;101006;-79
2022/04/09 09:53:14;;;;;;;4.93;1.58;;;;;;;15.23;37.33;98987.06;5033011;27;98772;-81
2022/04/09 09:55:44;;;;;;;4.95;1.27;;;;;;;15.48;36.36;98968.41;5034159;27;97393;-81
2022/04/09 09:58:13;;;;;;;3.88;1.50;;;;;;;15.31;36.22;98980.25;5022386;27;97731;-81
2022/04/09 10:00:39;;;;;;;4.78;1.65;;;;;;;15.42;36.00;98963.59;5031279;27;101505;-78
2022/04/09 10:03:06;;;;;;;5.28;1.75;;;;;;;15.75;35.67;98999.88;5032750;27;98301;-81
2022/04/09 10:05:32;;;;;;;4.93;1.48;;;;;;;15.47;35.68;99003.72;5028748;27;96769;-82
2022/04/09 10:07:59;;;;;;;2.88;1.25;;;;;;;15.17;35.98;99020.06;5022219;27;97273;-81
2022/04/09 10:10:26;;;;;;;6.20;1.63;;;;;;;14.79;36.27;98999.09;5009184;27;101666;-81
2022/04/09 10:12:55;;;;;;;3.45;1.58;;;;;;;14.74;36.30;99022.34;5027614;27;99633;-82
2022/04/09 10:15:26;;;;;;;6.50;1.75;;;;;;;14.71;36.70;99024.25;5005308;27;97288;-83
2022/04/09 10:17:54;;;;;;;3.47;1.73;;;;;;;14.67;36.61;99025.44;5001613;27;97488;-82
2022/04/09 10:20:19;;;;;;;4.30;2.17;;;;;;;14.78;36.89;99037.03;5003347;27;101769;-81
2022/04/09 10:22:46;;;;;;;4.35;1.77;;;;;;;14.74;36.81;99051.41;5025900;27;101246;-81
2022/04/09 10:25:14;;;;;;;4.40;1.70;;;;;;;14.42;36.42;99055.31;5022696;27;96875;-82
2022/04/09 10:27:42;;;;;;;3.85;2.03;;;;;;;14.11;36.54;99040.78;5038367;27;96969;-82
2022/04/09 10:30:12;;;;;;;4.80;1.48;;;;;;;14.21;36.33;99064.75;5023523;27;99144;-81
2022/04/09 10:32:53;;;;;;;3.85;1.40;;;;;;;14.25;36.45;99063.56;5027637;27;101610;-81
2022/04/09 10:35:25;;;;;;;2.83;1.02;;;;;;;14.16;37.05;99064.19;5012272;27;98501;-82
2022/04/09 10:38:15;;;;;;;4.78;1.20;;;;;;;14.32;36.41;99067.50;5035433;27;97414;-82
2022/04/09 10:40:43;;;;;;;5.80;1.10;;;;;;;14.30;36.58;99073.81;5021872;27;100716;-82
2022/04/09 10:43:39;;;;;;;5.00;1.10;;;;;;;14.33;35.83;99066.53;5049975;27;97319;-83
2022/04/09 10:46:09;;;;;;;5.40;1.55;;;;;;;14.46;36.46;99090.31;5008180;27;96904;-82
2022/04/09 10:48:39;;;;;;;4.32;1.33;;;;;;;14.42;36.74;99089.66;5042321;27;96745;-83
2022/04/09 10:51:08;;;;;;;4.85;1.33;;;;;;;14.36;36.62;99082.16;5026969;27;101271;-83
2022/04/09 10:53:35;;;;;;;3.67;1.30;;;;;;;14.35;36.95;99079.63;5012932;27;101720;-82
2022/04/09 10:56:31;;;;;;;5.78;1.38;;;;;;;14.49;36.86;99087.44;5034495;27;97354;-82
2022/04/09 10:59:29;;;;;;;7.13;1.50;;;;;;;14.52;36.43;99081.97;5030572;27;97376;-82
2022/04/09 11:01:55;;;;;;;2.78;1.10;;;;;;;14.51;36.74;99085.53;5039927;27;98040;-84
2022/04/09 11:04:31;;;;;;;5.35;1.40;;;;;;;14.30;35.79;99095.78;5030243;27;102119;-83
2022/04/09 11:07:16;;;;;;;3.85;1.20;;;;;;;14.07;36.49;99097.34;5041402;27;97005;-83
2022/04/09 11:10:03;;;;;;;2.40;1.40;;;;;;;13.89;37.31;99082.75;5050144;27;96769;-86
2022/04/09 11:12:37;;;;;;;4.15;1.27;;;;;;;14.02;37.30;99096.81;5012308;27;101992;-84
2022/04/09 11:15:15;;;;;;;4.18;1.25;;;;;;;13.92;37.59;99088.66;5040168;27;101775;-81
2022/04/09 11:17:45;;;;;;;7.05;1.27;;;;;;;13.85;38.14;99066.31;5022021;27;97365;-81
2022/04/09 11:20:18;;;;;;;3.05;1.33;;;;;;;13.88;37.47;99087.19;5032094;27;97923;-81
2022/04/09 11:22:48;;;;;;;2.85;0.95;;;;;;;13.81;37.05;99093.81;5031685;27;98564;-81
2022/04/09 11:25:24;;;;;;;5.53;1.70;;;;;;;13.81;36.97;99075.34;5030639;27;101243;-81
2022/04/09 11:27:51;;;;;;;4.93;1.08;;;;;;;13.82;37.43;99072.63;5035465;27;97605;-80
2022/04/09 11:30:17;;;;;;;2.90;1.45;;;;;;;13.75;37.12;99058.16;5030960;27;97186;-78
2022/04/09 11:32:42;;;;;;;4.63;1.00;;;;;;;13.78;36.79;99078.19;5019507;27;100939;-84
2022/04/09 11:35:10;;;;;;;5.18;1.17;;;;;;;13.77;36.24;99080.00;5036392;27;98921;-88
2022/04/09 11:37:45;;;;;;;2.65;1.00;;;;;;;13.76;36.25;99083.59;5019252;27;97301;-87
2022/04/09 11:40:13;;;;;;;5.32;1.10;;;;;;;13.75;35.86;99081.03;5019985;27;96794;-85